sensor_id;sensor_type;location;lat;lon;timestamp;temperature;humidity
5130;DHT22;2583;50.946;6.954;2023-04-08T00:00:27;9.60;1.00
5130;DHT22;2583;50.946;6.954;2023-04-08T00:02:54;9.50;99.90
5130;DHT22;2583;50.946;6.954;2023-04-08T00:05:21;9.50;99.90
5130;DHT22;2583;50.946;6.954;2023-04-08T00:07:48;9.50;64.50
5130;DHT22;2583;50.946;6.954;2023-04-08T00:10:15;9.60;99.90
5130;DHT22;2583;50.946;6.954;2023-04-08T00:12:42;9.50;99.90
5130;DHT22;2583;50.946;6.954;2023-04-08T00:15:09;9.50;31.00
5130;DHT22;2583;50.946;6.954;2023-04-08T00:17:36;9.50;99.90
5130;DHT22;2583;50.946;6.954;2023-04-08T00:20:04;9.40;99.90
5130;DHT22;2583;50.946;6.954;2023-04-08T00:22:31;9.50;1.00
5130;DHT22;2583;50.946;6.954;2023-04-08T00:24:58;9.40;1.00
5130;DHT22;2583;50.946;6.954;2023-04-08T00:27:24;9.40;1.00
5130;DHT22;2583;50.946;6.954;2023-04-08T00:29:51;9.50;1.00
5130;DHT22;2583;50.946;6.954;2023-04-08T00:32:18;9.40;99.90
5130;DHT22;2583;50.946;6.954;2023-04-08T00:34:45;9.40;99.90
5130;DHT22;2583;50.946;6.954;2023-04-08T00:37:12;9.40;24.20
5130;DHT22;2583;50.946;6.954;2023-04-08T00:39:38;9.40;1.00
5130;DHT22;2583;50.946;6.954;2023-04-08T00:42:05;9.50;1.00
5130;DHT22;2583;50.946;6.954;2023-04-08T00:44:32;9.40;99.90
5130;DHT22;2583;50.946;6.954;2023-04-08T00:46:59;9.40;1.00
5130;DHT22;2583;50.946;6.954;2023-04-08T00:49:26;9.40;1.00
5130;DHT22;2583;50.946;6.954;2023-04-08T00:51:53;9.40;1.00
5130;DHT22;2583;50.946;6.954;2023-04-08T00:54:21;9.40;1.00
5130;DHT22;2583;50.946;6.954;2023-04-08T00:56:48;9.40;99.90
5130;DHT22;2583;50.946;6.954;2023-04-08T00:59:17;9.40;1.00
5130;DHT22;2583;50.946;6.954;2023-04-08T01:04:55;9.40;46.40
5130;DHT22;2583;50.946;6.954;2023-04-08T01:07:30;9.50;1.00
5130;DHT22;2583;50.946;6.954;2023-04-08T01:10:05;9.50;1.00
5130;DHT22;2583;50.946;6.954;2023-04-08T01:12:49;9.50;99.90
5130;DHT22;2583;50.946;6.954;2023-04-08T01:15:17;9.50;99.90
5130;DHT22;2583;50.946;6.954;2023-04-08T01:17:45;9.50;1.00
5130;DHT22;2583;50.946;6.954;2023-04-08T01:20:12;9.40;99.90
5130;DHT22;2583;50.946;6.954;2023-04-08T01:25:30;9.40;58.10
5130;DHT22;2583;50.946;6.954;2023-04-08T01:27:59;9.40;1.00
5130;DHT22;2583;50.946;6.954;2023-04-08T01:30:27;9.40;1.00
5130;DHT22;2583;50.946;6.954;2023-04-08T01:32:56;9.40;99.90
5130;DHT22;2583;50.946;6.954;2023-04-08T01:35:25;9.40;99.90
5130;DHT22;2583;50.946;6.954;2023-04-08T01:37:53;9.30;99.90
5130;DHT22;2583;50.946;6.954;2023-04-08T01:40:21;9.50;99.90
5130;DHT22;2583;50.946;6.954;2023-04-08T01:42:49;9.50;32.00
5130;DHT22;2583;50.946;6.954;2023-04-08T01:45:17;9.50;1.00
5130;DHT22;2583;50.946;6.954;2023-04-08T01:47:45;9.50;99.90
5130;DHT22;2583;50.946;6.954;2023-04-08T01:50:16;9.50;1.00
5130;DHT22;2583;50.946;6.954;2023-04-08T01:52:45;9.60;1.00
5130;DHT22;2583;50.946;6.954;2023-04-08T01:55:13;9.60;1.00
5130;DHT22;2583;50.946;6.954;2023-04-08T01:57:43;9.60;99.90
5130;DHT22;2583;50.946;6.954;2023-04-08T02:00:14;9.60;99.90
5130;DHT22;2583;50.946;6.954;2023-04-08T02:02:43;9.60;1.00
5130;DHT22;2583;50.946;6.954;2023-04-08T02:05:13;9.60;99.90
5130;DHT22;2583;50.946;6.954;2023-04-08T02:07:40;9.60;1.00
5130;DHT22;2583;50.946;6.954;2023-04-08T02:10:07;9.60;99.90
5130;DHT22;2583;50.946;6.954;2023-04-08T02:12:34;9.60;1.00
5130;DHT22;2583;50.946;6.954;2023-04-08T02:15:00;9.60;99.90
5130;DHT22;2583;50.946;6.954;2023-04-08T02:17:34;9.70;1.00
5130;DHT22;2583;50.946;6.954;2023-04-08T02:20:06;9.60;1.00
5130;DHT22;2583;50.946;6.954;2023-04-08T02:25:22;9.60;99.90
5130;DHT22;2583;50.946;6.954;2023-04-08T02:27:51;9.60;1.00
5130;DHT22;2583;50.946;6.954;2023-04-08T02:30:18;9.60;1.00
5130;DHT22;2583;50.946;6.954;2023-04-08T02:32:46;9.60;1.00
5130;DHT22;2583;50.946;6.954;2023-04-08T02:35:14;9.60;99.90
5130;DHT22;2583;50.946;6.954;2023-04-08T02:37:42;9.60;1.00
5130;DHT22;2583;50.946;6.954;2023-04-08T02:40:25;9.60;1.00
5130;DHT22;2583;50.946;6.954;2023-04-08T02:42:53;9.50;99.90
5130;DHT22;2583;50.946;6.954;2023-04-08T02:45:20;9.40;1.00
5130;DHT22;2583;50.946;6.954;2023-04-08T02:47:47;9.40;1.00
5130;DHT22;2583;50.946;6.954;2023-04-08T02:50:14;9.40;99.90
5130;DHT22;2583;50.946;6.954;2023-04-08T02:52:41;9.40;99.90
5130;DHT22;2583;50.946;6.954;2023-04-08T02:55:09;9.40;1.00
5130;DHT22;2583;50.946;6.954;2023-04-08T02:57:38;9.40;1.00
5130;DHT22;2583;50.946;6.954;2023-04-08T03:00:05;9.30;1.00
5130;DHT22;2583;50.946;6.954;2023-04-08T03:02:32;9.30;99.90
5130;DHT22;2583;50.946;6.954;2023-04-08T03:05:00;9.30;99.90
5130;DHT22;2583;50.946;6.954;2023-04-08T03:07:26;9.30;99.90
5130;DHT22;2583;50.946;6.954;2023-04-08T03:09:53;9.30;99.90
5130;DHT22;2583;50.946;6.954;2023-04-08T03:12:21;9.30;99.90
5130;DHT22;2583;50.946;6.954;2023-04-08T03:14:49;9.30;99.90
5130;DHT22;2583;50.946;6.954;2023-04-08T03:17:16;9.30;1.00
5130;DHT22;2583;50.946;6.954;2023-04-08T03:19:42;9.30;1.00
5130;DHT22;2583;50.946;6.954;2023-04-08T03:22:09;9.30;1.00
5130;DHT22;2583;50.946;6.954;2023-04-08T03:24:36;9.40;99.90
5130;DHT22;2583;50.946;6.954;2023-04-08T03:27:03;9.30;99.90
5130;DHT22;2583;50.946;6.954;2023-04-08T03:29:30;9.30;1.00
5130;DHT22;2583;50.946;6.954;2023-04-08T03:31:57;9.40;1.00
5130;DHT22;2583;50.946;6.954;2023-04-08T03:34:24;9.40;1.00
5130;DHT22;2583;50.946;6.954;2023-04-08T03:36:50;9.40;1.00
5130;DHT22;2583;50.946;6.954;2023-04-08T03:39:18;9.40;1.00
5130;DHT22;2583;50.946;6.954;2023-04-08T03:41:44;9.40;99.90
5130;DHT22;2583;50.946;6.954;2023-04-08T03:44:11;9.40;99.90
5130;DHT22;2583;50.946;6.954;2023-04-08T03:46:38;9.40;1.00
5130;DHT22;2583;50.946;6.954;2023-04-08T03:49:05;9.40;99.90
5130;DHT22;2583;50.946;6.954;2023-04-08T03:51:32;9.50;1.00
5130;DHT22;2583;50.946;6.954;2023-04-08T03:53:59;9.40;1.00
5130;DHT22;2583;50.946;6.954;2023-04-08T03:56:26;9.40;99.90
5130;DHT22;2583;50.946;6.954;2023-04-08T03:58:53;9.40;1.00
5130;DHT22;2583;50.946;6.954;2023-04-08T04:01:20;9.40;1.00
5130;DHT22;2583;50.946;6.954;2023-04-08T04:03:46;9.40;1.00
5130;DHT22;2583;50.946;6.954;2023-04-08T04:06:13;9.40;1.00
5130;DHT22;2583;50.946;6.954;2023-04-08T04:08:40;9.40;99.90
5130;DHT22;2583;50.946;6.954;2023-04-08T04:11:07;9.30;1.00
5130;DHT22;2583;50.946;6.954;2023-04-08T04:13:33;9.40;95.70
5130;DHT22;2583;50.946;6.954;2023-04-08T04:16:00;9.40;98.20
5130;DHT22;2583;50.946;6.954;2023-04-08T04:18:27;9.40;99.90
5130;DHT22;2583;50.946;6.954;2023-04-08T04:20:54;9.30;99.90
5130;DHT22;2583;50.946;6.954;2023-04-08T04:23:21;9.40;99.90
5130;DHT22;2583;50.946;6.954;2023-04-08T04:25:49;9.30;99.90
5130;DHT22;2583;50.946;6.954;2023-04-08T04:28:16;9.30;99.90
5130;DHT22;2583;50.946;6.954;2023-04-08T04:30:43;9.30;99.90
5130;DHT22;2583;50.946;6.954;2023-04-08T04:33:11;9.40;99.90
5130;DHT22;2583;50.946;6.954;2023-04-08T04:35:38;9.30;99.90
5130;DHT22;2583;50.946;6.954;2023-04-08T04:38:05;9.30;99.90
5130;DHT22;2583;50.946;6.954;2023-04-08T04:40:38;9.40;99.90
5130;DHT22;2583;50.946;6.954;2023-04-08T04:43:05;9.40;99.90
5130;DHT22;2583;50.946;6.954;2023-04-08T04:45:31;9.40;99.90
5130;DHT22;2583;50.946;6.954;2023-04-08T04:47:58;9.40;99.90
5130;DHT22;2583;50.946;6.954;2023-04-08T04:50:25;9.40;99.90
5130;DHT22;2583;50.946;6.954;2023-04-08T04:52:52;9.30;99.90
5130;DHT22;2583;50.946;6.954;2023-04-08T04:55:19;9.30;99.90
5130;DHT22;2583;50.946;6.954;2023-04-08T04:57:48;9.20;1.00
5130;DHT22;2583;50.946;6.954;2023-04-08T05:00:15;9.30;99.90
5130;DHT22;2583;50.946;6.954;2023-04-08T05:02:42;9.20;1.00
5130;DHT22;2583;50.946;6.954;2023-04-08T05:05:09;9.20;99.90
5130;DHT22;2583;50.946;6.954;2023-04-08T05:07:37;9.30;1.00
5130;DHT22;2583;50.946;6.954;2023-04-08T05:10:04;9.20;99.90
5130;DHT22;2583;50.946;6.954;2023-04-08T05:12:32;9.20;1.00
5130;DHT22;2583;50.946;6.954;2023-04-08T05:14:59;9.20;99.90
5130;DHT22;2583;50.946;6.954;2023-04-08T05:17:26;9.30;1.00
5130;DHT22;2583;50.946;6.954;2023-04-08T05:19:53;9.30;99.90
5130;DHT22;2583;50.946;6.954;2023-04-08T05:22:20;9.30;99.90
5130;DHT22;2583;50.946;6.954;2023-04-08T05:24:46;9.30;99.90
5130;DHT22;2583;50.946;6.954;2023-04-08T05:27:13;9.30;99.90
5130;DHT22;2583;50.946;6.954;2023-04-08T05:29:40;9.30;90.10
5130;DHT22;2583;50.946;6.954;2023-04-08T05:32:07;9.40;31.10
5130;DHT22;2583;50.946;6.954;2023-04-08T05:34:33;9.30;1.00
5130;DHT22;2583;50.946;6.954;2023-04-08T05:37:00;9.30;1.00
5130;DHT22;2583;50.946;6.954;2023-04-08T05:39:27;9.30;1.00
5130;DHT22;2583;50.946;6.954;2023-04-08T05:41:54;9.30;1.00
5130;DHT22;2583;50.946;6.954;2023-04-08T05:44:21;9.30;1.00
5130;DHT22;2583;50.946;6.954;2023-04-08T05:46:47;9.30;1.00
5130;DHT22;2583;50.946;6.954;2023-04-08T05:49:14;9.20;1.00
5130;DHT22;2583;50.946;6.954;2023-04-08T05:51:42;9.20;1.00
5130;DHT22;2583;50.946;6.954;2023-04-08T05:54:09;9.30;1.00
5130;DHT22;2583;50.946;6.954;2023-04-08T05:56:36;9.20;1.00
5130;DHT22;2583;50.946;6.954;2023-04-08T05:59:03;9.10;1.00
5130;DHT22;2583;50.946;6.954;2023-04-08T06:01:29;9.20;1.00
5130;DHT22;2583;50.946;6.954;2023-04-08T06:03:56;9.20;1.00
5130;DHT22;2583;50.946;6.954;2023-04-08T06:06:24;9.10;1.00
5130;DHT22;2583;50.946;6.954;2023-04-08T06:08:51;9.10;1.00
5130;DHT22;2583;50.946;6.954;2023-04-08T06:11:18;9.10;29.60
5130;DHT22;2583;50.946;6.954;2023-04-08T06:13:45;9.10;99.80
5130;DHT22;2583;50.946;6.954;2023-04-08T06:16:15;9.10;1.00
5130;DHT22;2583;50.946;6.954;2023-04-08T06:18:46;9.20;1.00
5130;DHT22;2583;50.946;6.954;2023-04-08T06:21:14;9.20;1.00
5130;DHT22;2583;50.946;6.954;2023-04-08T06:23:41;9.20;99.90
5130;DHT22;2583;50.946;6.954;2023-04-08T06:26:08;9.20;99.90
5130;DHT22;2583;50.946;6.954;2023-04-08T06:28:34;9.30;47.90
5130;DHT22;2583;50.946;6.954;2023-04-08T06:31:01;9.30;36.50
5130;DHT22;2583;50.946;6.954;2023-04-08T06:33:28;9.40;99.90
5130;DHT22;2583;50.946;6.954;2023-04-08T06:36:02;9.40;1.00
5130;DHT22;2583;50.946;6.954;2023-04-08T06:38:29;9.40;1.00
5130;DHT22;2583;50.946;6.954;2023-04-08T06:41:06;9.60;1.00
5130;DHT22;2583;50.946;6.954;2023-04-08T06:43:34;9.60;99.90
5130;DHT22;2583;50.946;6.954;2023-04-08T06:46:02;9.70;62.90
5130;DHT22;2583;50.946;6.954;2023-04-08T06:48:29;9.70;99.90
5130;DHT22;2583;50.946;6.954;2023-04-08T06:50:57;9.70;1.00
5130;DHT22;2583;50.946;6.954;2023-04-08T06:53:25;9.70;99.90
5130;DHT22;2583;50.946;6.954;2023-04-08T06:55:52;9.70;1.00
5130;DHT22;2583;50.946;6.954;2023-04-08T06:58:19;9.80;1.00
5130;DHT22;2583;50.946;6.954;2023-04-08T07:00:46;9.90;99.90
5130;DHT22;2583;50.946;6.954;2023-04-08T07:03:13;9.90;1.00
5130;DHT22;2583;50.946;6.954;2023-04-08T07:05:40;10.00;1.00
5130;DHT22;2583;50.946;6.954;2023-04-08T07:08:07;10.00;1.00
5130;DHT22;2583;50.946;6.954;2023-04-08T07:10:34;10.00;99.90
5130;DHT22;2583;50.946;6.954;2023-04-08T07:13:02;10.00;99.90
5130;DHT22;2583;50.946;6.954;2023-04-08T07:15:28;10.00;1.00
5130;DHT22;2583;50.946;6.954;2023-04-08T07:17:55;10.10;58.20
5130;DHT22;2583;50.946;6.954;2023-04-08T07:20:22;10.10;1.00
5130;DHT22;2583;50.946;6.954;2023-04-08T07:22:49;10.00;99.90
5130;DHT22;2583;50.946;6.954;2023-04-08T07:25:16;10.00;1.00
5130;DHT22;2583;50.946;6.954;2023-04-08T07:27:43;10.20;1.00
5130;DHT22;2583;50.946;6.954;2023-04-08T07:30:10;10.20;1.00
5130;DHT22;2583;50.946;6.954;2023-04-08T07:32:37;10.20;1.00
5130;DHT22;2583;50.946;6.954;2023-04-08T07:35:04;10.30;1.00
5130;DHT22;2583;50.946;6.954;2023-04-08T07:37:31;10.40;1.00
5130;DHT22;2583;50.946;6.954;2023-04-08T07:39:58;10.50;99.90
5130;DHT22;2583;50.946;6.954;2023-04-08T07:42:25;10.50;1.00
5130;DHT22;2583;50.946;6.954;2023-04-08T07:44:52;10.50;99.90
5130;DHT22;2583;50.946;6.954;2023-04-08T07:47:19;10.50;1.00
5130;DHT22;2583;50.946;6.954;2023-04-08T07:49:46;10.60;99.90
5130;DHT22;2583;50.946;6.954;2023-04-08T07:52:13;10.70;61.10
5130;DHT22;2583;50.946;6.954;2023-04-08T07:54:40;10.80;1.00
5130;DHT22;2583;50.946;6.954;2023-04-08T07:57:07;10.80;1.00
5130;DHT22;2583;50.946;6.954;2023-04-08T07:59:34;10.80;99.90
5130;DHT22;2583;50.946;6.954;2023-04-08T08:02:01;10.80;99.90
5130;DHT22;2583;50.946;6.954;2023-04-08T08:04:28;10.80;1.00
5130;DHT22;2583;50.946;6.954;2023-04-08T08:06:56;10.80;1.00
5130;DHT22;2583;50.946;6.954;2023-04-08T08:09:22;10.80;1.00
5130;DHT22;2583;50.946;6.954;2023-04-08T08:11:49;10.90;1.00
5130;DHT22;2583;50.946;6.954;2023-04-08T08:14:16;10.90;1.00
5130;DHT22;2583;50.946;6.954;2023-04-08T08:16:43;10.80;1.00
5130;DHT22;2583;50.946;6.954;2023-04-08T08:19:10;10.80;1.00
5130;DHT22;2583;50.946;6.954;2023-04-08T08:21:38;10.70;1.00
5130;DHT22;2583;50.946;6.954;2023-04-08T08:24:05;10.60;99.90
5130;DHT22;2583;50.946;6.954;2023-04-08T08:26:35;10.70;1.00
5130;DHT22;2583;50.946;6.954;2023-04-08T08:29:03;10.70;1.00
5130;DHT22;2583;50.946;6.954;2023-04-08T08:31:31;10.70;1.00
5130;DHT22;2583;50.946;6.954;2023-04-08T08:33:58;10.70;1.00
5130;DHT22;2583;50.946;6.954;2023-04-08T08:36:25;10.70;99.90
5130;DHT22;2583;50.946;6.954;2023-04-08T08:38:55;10.70;99.90
5130;DHT22;2583;50.946;6.954;2023-04-08T08:41:22;10.70;99.90
5130;DHT22;2583;50.946;6.954;2023-04-08T08:43:48;10.70;99.90
5130;DHT22;2583;50.946;6.954;2023-04-08T08:46:16;10.70;1.00
5130;DHT22;2583;50.946;6.954;2023-04-08T08:48:45;10.80;1.00
5130;DHT22;2583;50.946;6.954;2023-04-08T08:51:13;10.80;1.00
5130;DHT22;2583;50.946;6.954;2023-04-08T08:53:40;10.70;1.00
5130;DHT22;2583;50.946;6.954;2023-04-08T08:56:11;10.90;99.90
5130;DHT22;2583;50.946;6.954;2023-04-08T08:58:40;11.00;99.90
5130;DHT22;2583;50.946;6.954;2023-04-08T09:04:13;11.20;1.00
5130;DHT22;2583;50.946;6.954;2023-04-08T09:06:43;11.30;1.00
5130;DHT22;2583;50.946;6.954;2023-04-08T09:09:10;11.40;1.00
5130;DHT22;2583;50.946;6.954;2023-04-08T09:11:42;11.40;1.00
5130;DHT22;2583;50.946;6.954;2023-04-08T09:14:23;11.40;1.00
5130;DHT22;2583;50.946;6.954;2023-04-08T09:16:51;11.30;1.00
5130;DHT22;2583;50.946;6.954;2023-04-08T09:19:18;11.30;1.00
5130;DHT22;2583;50.946;6.954;2023-04-08T09:21:45;11.30;1.00
5130;DHT22;2583;50.946;6.954;2023-04-08T09:24:29;11.20;1.00
5130;DHT22;2583;50.946;6.954;2023-04-08T09:26:56;11.30;1.00
5130;DHT22;2583;50.946;6.954;2023-04-08T09:29:24;11.40;99.90
5130;DHT22;2583;50.946;6.954;2023-04-08T09:31:55;11.40;99.90
5130;DHT22;2583;50.946;6.954;2023-04-08T09:34:24;11.50;99.90
5130;DHT22;2583;50.946;6.954;2023-04-08T09:36:52;11.50;99.90
5130;DHT22;2583;50.946;6.954;2023-04-08T09:39:19;11.60;99.90
5130;DHT22;2583;50.946;6.954;2023-04-08T09:41:50;11.60;99.90
5130;DHT22;2583;50.946;6.954;2023-04-08T09:44:19;11.60;99.90
5130;DHT22;2583;50.946;6.954;2023-04-08T09:49:33;11.80;1.00
5130;DHT22;2583;50.946;6.954;2023-04-08T09:52:14;11.90;1.00
5130;DHT22;2583;50.946;6.954;2023-04-08T09:55:03;12.00;1.00
5130;DHT22;2583;50.946;6.954;2023-04-08T09:57:54;12.10;1.00
5130;DHT22;2583;50.946;6.954;2023-04-08T10:00:25;12.10;1.00
5130;DHT22;2583;50.946;6.954;2023-04-08T10:05:30;12.20;1.00
5130;DHT22;2583;50.946;6.954;2023-04-08T10:07:57;12.20;1.00
5130;DHT22;2583;50.946;6.954;2023-04-08T10:10:24;12.30;1.00
5130;DHT22;2583;50.946;6.954;2023-04-08T10:12:52;12.50;1.00
5130;DHT22;2583;50.946;6.954;2023-04-08T10:15:32;12.60;1.00
5130;DHT22;2583;50.946;6.954;2023-04-08T10:23:03;12.70;1.00
5130;DHT22;2583;50.946;6.954;2023-04-08T10:25:31;12.80;1.00
5130;DHT22;2583;50.946;6.954;2023-04-08T10:30:45;12.70;1.00
5130;DHT22;2583;50.946;6.954;2023-04-08T10:33:21;12.70;1.00
5130;DHT22;2583;50.946;6.954;2023-04-08T10:36:09;12.70;1.00
5130;DHT22;2583;50.946;6.954;2023-04-08T10:38:40;12.70;1.00
5130;DHT22;2583;50.946;6.954;2023-04-08T10:41:11;12.70;1.00
5130;DHT22;2583;50.946;6.954;2023-04-08T10:43:46;12.80;1.00
5130;DHT22;2583;50.946;6.954;2023-04-08T10:46:13;12.80;1.00
5130;DHT22;2583;50.946;6.954;2023-04-08T10:48:40;12.70;1.00
5130;DHT22;2583;50.946;6.954;2023-04-08T10:51:07;12.60;1.00
5130;DHT22;2583;50.946;6.954;2023-04-08T10:53:38;12.60;1.00
5130;DHT22;2583;50.946;6.954;2023-04-08T10:56:10;12.80;1.00
5130;DHT22;2583;50.946;6.954;2023-04-08T10:58:49;12.80;1.00
5130;DHT22;2583;50.946;6.954;2023-04-08T11:01:17;12.70;1.00
5130;DHT22;2583;50.946;6.954;2023-04-08T11:03:44;12.70;1.00
5130;DHT22;2583;50.946;6.954;2023-04-08T11:06:11;12.70;1.00
5130;DHT22;2583;50.946;6.954;2023-04-08T11:08:38;12.70;1.00
5130;DHT22;2583;50.946;6.954;2023-04-08T11:11:06;12.80;1.00
5130;DHT22;2583;50.946;6.954;2023-04-08T11:13:38;12.70;1.00
5130;DHT22;2583;50.946;6.954;2023-04-08T11:16:14;12.90;1.00
5130;DHT22;2583;50.946;6.954;2023-04-08T11:18:44;12.70;1.00
5130;DHT22;2583;50.946;6.954;2023-04-08T11:21:11;12.70;1.00
5130;DHT22;2583;50.946;6.954;2023-04-08T11:23:38;12.60;1.00
5130;DHT22;2583;50.946;6.954;2023-04-08T11:26:05;12.80;1.00
5130;DHT22;2583;50.946;6.954;2023-04-08T11:28:33;12.90;1.00
5130;DHT22;2583;50.946;6.954;2023-04-08T11:31:01;12.80;1.00
5130;DHT22;2583;50.946;6.954;2023-04-08T11:33:31;12.90;1.00
5130;DHT22;2583;50.946;6.954;2023-04-08T11:36:00;13.10;1.00
5130;DHT22;2583;50.946;6.954;2023-04-08T11:38:29;12.90;1.00
5130;DHT22;2583;50.946;6.954;2023-04-08T11:40:57;13.00;1.00
5130;DHT22;2583;50.946;6.954;2023-04-08T11:43:25;12.80;1.00
5130;DHT22;2583;50.946;6.954;2023-04-08T11:45:52;12.80;1.00
5130;DHT22;2583;50.946;6.954;2023-04-08T11:48:19;12.70;1.00
5130;DHT22;2583;50.946;6.954;2023-04-08T11:50:45;12.60;1.00
5130;DHT22;2583;50.946;6.954;2023-04-08T11:53:24;12.50;1.00
5130;DHT22;2583;50.946;6.954;2023-04-08T11:55:51;12.50;1.00
5130;DHT22;2583;50.946;6.954;2023-04-08T11:58:18;12.60;1.00
5130;DHT22;2583;50.946;6.954;2023-04-08T12:00:45;12.60;1.00
5130;DHT22;2583;50.946;6.954;2023-04-08T12:03:12;12.50;1.00
5130;DHT22;2583;50.946;6.954;2023-04-08T12:05:40;12.60;1.00
5130;DHT22;2583;50.946;6.954;2023-04-08T12:08:06;12.60;1.00
5130;DHT22;2583;50.946;6.954;2023-04-08T12:10:33;12.60;1.00
5130;DHT22;2583;50.946;6.954;2023-04-08T12:13:00;12.60;1.00
5130;DHT22;2583;50.946;6.954;2023-04-08T12:15:27;12.70;1.00
5130;DHT22;2583;50.946;6.954;2023-04-08T12:17:54;12.60;1.00
5130;DHT22;2583;50.946;6.954;2023-04-08T12:20:21;12.60;1.00
5130;DHT22;2583;50.946;6.954;2023-04-08T12:22:48;12.70;1.00
5130;DHT22;2583;50.946;6.954;2023-04-08T12:25:14;12.70;1.00
5130;DHT22;2583;50.946;6.954;2023-04-08T12:27:41;12.80;1.00
5130;DHT22;2583;50.946;6.954;2023-04-08T12:30:09;12.80;1.00
5130;DHT22;2583;50.946;6.954;2023-04-08T12:32:36;12.70;1.00
5130;DHT22;2583;50.946;6.954;2023-04-08T12:35:03;12.70;1.00
5130;DHT22;2583;50.946;6.954;2023-04-08T12:37:30;12.50;1.00
5130;DHT22;2583;50.946;6.954;2023-04-08T12:39:58;12.60;1.00
5130;DHT22;2583;50.946;6.954;2023-04-08T12:42:25;12.60;1.00
5130;DHT22;2583;50.946;6.954;2023-04-08T12:44:53;12.60;1.00
5130;DHT22;2583;50.946;6.954;2023-04-08T12:47:20;12.50;1.00
5130;DHT22;2583;50.946;6.954;2023-04-08T12:49:49;12.50;1.00
5130;DHT22;2583;50.946;6.954;2023-04-08T12:52:16;12.50;1.00
5130;DHT22;2583;50.946;6.954;2023-04-08T12:54:44;12.30;1.00
5130;DHT22;2583;50.946;6.954;2023-04-08T12:57:11;12.30;1.00
5130;DHT22;2583;50.946;6.954;2023-04-08T12:59:38;12.30;1.00
5130;DHT22;2583;50.946;6.954;2023-04-08T13:02:06;12.30;1.00
5130;DHT22;2583;50.946;6.954;2023-04-08T13:04:33;12.50;1.00
5130;DHT22;2583;50.946;6.954;2023-04-08T13:07:00;12.60;1.00
5130;DHT22;2583;50.946;6.954;2023-04-08T13:09:27;12.80;1.00
5130;DHT22;2583;50.946;6.954;2023-04-08T13:11:56;12.80;1.00
5130;DHT22;2583;50.946;6.954;2023-04-08T13:14:23;12.70;1.00
5130;DHT22;2583;50.946;6.954;2023-04-08T13:16:50;13.00;1.00
5130;DHT22;2583;50.946;6.954;2023-04-08T13:19:17;13.10;1.00
5130;DHT22;2583;50.946;6.954;2023-04-08T13:21:44;13.20;1.00
5130;DHT22;2583;50.946;6.954;2023-04-08T13:24:12;13.10;1.00
5130;DHT22;2583;50.946;6.954;2023-04-08T13:26:39;13.20;1.00
5130;DHT22;2583;50.946;6.954;2023-04-08T13:29:05;13.20;1.00
5130;DHT22;2583;50.946;6.954;2023-04-08T13:31:32;13.70;1.00
5130;DHT22;2583;50.946;6.954;2023-04-08T13:33:59;13.80;1.00
5130;DHT22;2583;50.946;6.954;2023-04-08T13:36:26;13.90;1.00
5130;DHT22;2583;50.946;6.954;2023-04-08T13:38:54;13.80;1.00
5130;DHT22;2583;50.946;6.954;2023-04-08T13:41:22;13.70;1.00
5130;DHT22;2583;50.946;6.954;2023-04-08T13:43:48;13.80;1.00
5130;DHT22;2583;50.946;6.954;2023-04-08T13:46:16;13.70;1.00
5130;DHT22;2583;50.946;6.954;2023-04-08T13:48:43;13.70;1.00
5130;DHT22;2583;50.946;6.954;2023-04-08T13:51:10;13.60;1.00
5130;DHT22;2583;50.946;6.954;2023-04-08T13:53:37;13.50;1.00
5130;DHT22;2583;50.946;6.954;2023-04-08T13:56:04;13.60;1.00
5130;DHT22;2583;50.946;6.954;2023-04-08T13:58:30;13.50;1.00
5130;DHT22;2583;50.946;6.954;2023-04-08T14:00:57;13.40;1.00
5130;DHT22;2583;50.946;6.954;2023-04-08T14:03:24;13.30;1.00
5130;DHT22;2583;50.946;6.954;2023-04-08T14:05:51;13.30;1.00
5130;DHT22;2583;50.946;6.954;2023-04-08T14:08:19;13.30;1.00
5130;DHT22;2583;50.946;6.954;2023-04-08T14:10:54;13.40;1.00
5130;DHT22;2583;50.946;6.954;2023-04-08T14:13:22;13.40;1.00
5130;DHT22;2583;50.946;6.954;2023-04-08T14:15:48;13.50;1.00
5130;DHT22;2583;50.946;6.954;2023-04-08T14:18:15;13.60;1.00
5130;DHT22;2583;50.946;6.954;2023-04-08T14:20:45;13.40;1.00
5130;DHT22;2583;50.946;6.954;2023-04-08T14:23:11;13.40;1.00
5130;DHT22;2583;50.946;6.954;2023-04-08T14:25:39;13.40;1.00
5130;DHT22;2583;50.946;6.954;2023-04-08T14:28:06;13.50;1.00
5130;DHT22;2583;50.946;6.954;2023-04-08T14:30:34;13.40;1.00
5130;DHT22;2583;50.946;6.954;2023-04-08T14:33:02;13.40;1.00
5130;DHT22;2583;50.946;6.954;2023-04-08T14:35:30;13.20;1.00
5130;DHT22;2583;50.946;6.954;2023-04-08T14:37:57;13.30;1.00
5130;DHT22;2583;50.946;6.954;2023-04-08T14:40:24;13.30;1.00
5130;DHT22;2583;50.946;6.954;2023-04-08T14:42:51;13.40;1.00
5130;DHT22;2583;50.946;6.954;2023-04-08T14:45:18;13.50;1.00
5130;DHT22;2583;50.946;6.954;2023-04-08T14:47:45;13.60;1.00
5130;DHT22;2583;50.946;6.954;2023-04-08T14:50:12;13.60;1.00
5130;DHT22;2583;50.946;6.954;2023-04-08T14:52:38;13.60;1.00
5130;DHT22;2583;50.946;6.954;2023-04-08T14:55:06;13.60;1.00
5130;DHT22;2583;50.946;6.954;2023-04-08T14:57:33;13.50;1.00
5130;DHT22;2583;50.946;6.954;2023-04-08T14:59:59;13.30;1.00
5130;DHT22;2583;50.946;6.954;2023-04-08T15:02:27;13.10;1.00
5130;DHT22;2583;50.946;6.954;2023-04-08T15:04:54;13.10;1.00
5130;DHT22;2583;50.946;6.954;2023-04-08T15:07:21;13.00;1.00
5130;DHT22;2583;50.946;6.954;2023-04-08T15:09:48;13.10;1.00
5130;DHT22;2583;50.946;6.954;2023-04-08T15:12:15;13.30;1.00
5130;DHT22;2583;50.946;6.954;2023-04-08T15:14:42;13.20;1.00
5130;DHT22;2583;50.946;6.954;2023-04-08T15:17:08;13.10;1.00
5130;DHT22;2583;50.946;6.954;2023-04-08T15:19:35;13.10;1.00
5130;DHT22;2583;50.946;6.954;2023-04-08T15:22:02;13.00;1.00
5130;DHT22;2583;50.946;6.954;2023-04-08T15:24:29;12.90;1.00
5130;DHT22;2583;50.946;6.954;2023-04-08T15:26:56;12.90;1.00
5130;DHT22;2583;50.946;6.954;2023-04-08T15:29:23;13.00;1.00
5130;DHT22;2583;50.946;6.954;2023-04-08T15:31:50;13.00;1.00
5130;DHT22;2583;50.946;6.954;2023-04-08T15:34:18;13.00;1.00
5130;DHT22;2583;50.946;6.954;2023-04-08T15:36:44;13.30;1.00
5130;DHT22;2583;50.946;6.954;2023-04-08T15:39:12;13.50;1.00
5130;DHT22;2583;50.946;6.954;2023-04-08T15:41:39;13.40;1.00
5130;DHT22;2583;50.946;6.954;2023-04-08T15:44:07;13.40;1.00
5130;DHT22;2583;50.946;6.954;2023-04-08T15:46:33;13.30;1.00
5130;DHT22;2583;50.946;6.954;2023-04-08T15:49:03;13.20;1.00
5130;DHT22;2583;50.946;6.954;2023-04-08T15:51:30;13.30;1.00
5130;DHT22;2583;50.946;6.954;2023-04-08T15:53:57;13.20;1.00
5130;DHT22;2583;50.946;6.954;2023-04-08T15:56:24;13.20;1.00
5130;DHT22;2583;50.946;6.954;2023-04-08T15:58:52;13.20;1.00
5130;DHT22;2583;50.946;6.954;2023-04-08T16:01:19;13.20;1.00
5130;DHT22;2583;50.946;6.954;2023-04-08T16:03:47;13.20;1.00
5130;DHT22;2583;50.946;6.954;2023-04-08T16:06:14;13.20;1.00
5130;DHT22;2583;50.946;6.954;2023-04-08T16:08:41;13.20;1.00
5130;DHT22;2583;50.946;6.954;2023-04-08T16:11:09;13.40;1.00
5130;DHT22;2583;50.946;6.954;2023-04-08T16:13:35;13.50;1.00
5130;DHT22;2583;50.946;6.954;2023-04-08T16:16:04;13.40;1.00
5130;DHT22;2583;50.946;6.954;2023-04-08T16:18:31;13.30;1.00
5130;DHT22;2583;50.946;6.954;2023-04-08T16:20:58;13.30;1.00
5130;DHT22;2583;50.946;6.954;2023-04-08T16:23:25;13.30;1.00
5130;DHT22;2583;50.946;6.954;2023-04-08T16:25:52;13.20;1.00
5130;DHT22;2583;50.946;6.954;2023-04-08T16:28:18;13.00;1.00
5130;DHT22;2583;50.946;6.954;2023-04-08T16:30:45;13.00;1.00
5130;DHT22;2583;50.946;6.954;2023-04-08T16:33:13;12.90;1.00
5130;DHT22;2583;50.946;6.954;2023-04-08T16:35:40;13.00;1.00
5130;DHT22;2583;50.946;6.954;2023-04-08T16:38:07;13.00;1.00
5130;DHT22;2583;50.946;6.954;2023-04-08T16:40:34;12.90;1.00
5130;DHT22;2583;50.946;6.954;2023-04-08T16:43:01;12.90;1.00
5130;DHT22;2583;50.946;6.954;2023-04-08T16:45:30;12.90;1.00
5130;DHT22;2583;50.946;6.954;2023-04-08T16:47:58;12.80;1.00